עמוד ראשי
METAR-TAF:

METAR-TAF

שדות תעופה :

מג'ורו, איי מרשל

קו רוחב: 07-04N, קו אורך: 171-17E, גובה: 2מטר

תצפית מזג אוויר נוכחית

הדו"ח נערך לפני 12 שעות ו 14דקות, בשעה 23:53 UTC
טמפרטורת 28 צלסיוס
לחות 79%
לחץ 1011 hPa
ראות: 24.1קילומטר
מעט עננים בגובה 1400רגל
עננים פזורים בגובה 5000רגל
עננים בינוניים בגובה 12000רגל
מעונן בגובה 30000רגל

METAR: PKMJ 142353Z 04016K 15SM FEW014 SCT050 BKN120 OVC300 28/24 A2986 RMK LAST

זמן: 00:07 (12:07 UTC)

תחזית

הדו"ח נערך לפני 36דקות, בשעה 11:31 UTC
תחזית בתוקף מ 15 ב 12 UTC עד 16 ב 12 UTC
רוח 11קשר מכיוון מזרח/צפון-מזרח
ראות: 10קילומטר
מעט עננים בגובה 1500רגל
עננים פזורים בגובה 4000רגל
עננים בינוניים בגובה 12000רגל
ממטרים במרחב
זמנית מ -
15 ב 13 UTC עד 15 ב 17 UTC
ראות: 4.8קילומטר
עננים פזורים בגובה 1400רגל
עננים בינוניים בגובה 4000רגל
ממטרי גשם,

TAF: PKMJ 151131Z 1512/1612 07011KT P6SM VCSH FEW015 SCT040 BKN120 TEMPO 1513/1517 3SM SHRA SCT014 BKN040

תצפיות ותחזיות מזג אוויר לגבי יותר מ- 4,000 שדות תעופה ברחבי העולם. דוחות METAR ו- TAF.

התחנות הזמינות מסומנות בנקודות צהובות ואדומות על גבי המפה.

העבר את העכבר לנקודה הצבעונית על מנת לראות את שם התחנה.

לאחר מכן, לחץ כדי לראות את תוכן ואת תחזיות מזג האוויר.

כדי לשנות את המפה: לחץ על הכפתורים הירוקים עם הפלוס השחור כדי להתקרב; על הכפתור הירוק עם המקף כדי להתרחק; או בחיצים הירוקים למפות סמוכות.


METAR-TAF: